D/T METAR WX W/DIR W/SPE G/SPE TEMP DEWP
25/02/20 14:50 EGXU 251450Z 26011KT 9999 SCT026 BKN037 06/01 Q0992 RMK BLU W (260°) 12.7mph 6°C 1°C
25/02/20 14:20 EGXU 251420Z 26011KT 9999 FEW022 SCT040 07/02 Q0993 RMK BLU W (260°) 12.7mph 7°C 2°C
25/02/20 13:50 EGXU 251350Z 27010KT 9999 FEW020 SCT030 06/02 Q0993 RMK BLU W (270°) 11.5mph 6°C 2°C
25/02/20 13:20 EGXU 251320Z 27012KT 9999 FEW020 SCT026 07/01 Q0993 RMK BLU W (270°) 13.8mph 7°C 1°C
25/02/20 12:50 EGXU 251250Z 27011KT 9999 SCT026 07/01 Q0994 RMK BLU W (270°) 12.7mph 7°C 1°C
25/02/20 12:20 EGXU 251220Z 29014KT 9999 SCT025 FEW034 06/02 Q0994 RMK BLU WNW (290°) 16.1mph 6°C 2°C
25/02/20 11:20 EGXU 251120Z 25012KT 9999 FEW039 SCT025 06/01 Q0995 RMK BLU WSW (250°) 13.8mph 6°C 1°C
25/02/20 10:20 EGXU 251020Z 27010KT 9999 FEW014 BKN060 04/01 Q0995 RMK BLU W (270°) 11.5mph 4°C 1°C
25/02/20 09:50 EGXU 250950Z 26012KT 9999 FEW014 BKN050 04/02 Q0995 RMK BLU W (260°) 13.8mph 4°C 2°C
25/02/20 09:20 EGXU 250920Z 24011KT 9999 BKN046 04/02 Q0995 RMK BLU WSW (240°) 12.7mph 4°C 2°C
25/02/20 08:20 EGXU 250820Z 26009KT 9999 FEW018 BKN050 03/02 Q0996 RMK BLU W (260°) 10.4mph 3°C 2°C
25/02/20 06:50 EGXU 250650Z AUTO 26006KT 9999 BKN023/// SCT033/// 05/01 Q0996 W (260°) 6.9mph 5°C 1°C
25/02/20 05:50 EGXU 250550Z AUTO 26004KT 9999 BKN024/// 04/01 Q0996 W (260°) 4.6mph 4°C 1°C
25/02/20 04:50 EGXU 250450Z AUTO 28008KT 9999 SCT019/// 04/01 Q0997 W (280°) 9.2mph 4°C 1°C
25/02/20 03:50 EGXU 250350Z AUTO 27011G23KT 9999 SCT019/// 04/01 Q0997 W (270°) 12.7mph 26.5mph 4°C 1°C
25/02/20 02:50 EGXU 250250Z AUTO 28016G26KT 9999 NCD 04/01 Q0997 W (280°) 18.4mph 29.9mph 4°C 1°C
25/02/20 01:50 EGXU 250150Z AUTO 27015KT 9999 NCD 05/01 Q0997 W (270°) 17.3mph 5°C 1°C
25/02/20 00:50 EGXU 250050Z AUTO 27016G26KT 9999 NCD 05/01 Q0997 W (270°) 18.4mph 29.9mph 5°C 1°C
24/02/20 23:50 EGXU 242350Z AUTO 27015G25KT 9999 NCD 05/02 Q0997 W (270°) 17.3mph 28.8mph 5°C 2°C
24/02/20 22:50 EGXU 242250Z AUTO 27016KT 9999 NCD 05/02 Q0998 W (270°) 18.4mph 5°C 2°C
24/02/20 21:50 EGXU 242150Z AUTO 27017G27KT 9999 NCD 05/01 Q0997 W (270°) 19.6mph 31.1mph 5°C 1°C
24/02/20 20:50 EGXU 242050Z AUTO 27016G27KT 9999 NCD 05/01 Q0997 W (270°) 18.4mph 31.1mph 5°C 1°C
24/02/20 19:50 EGXU 241950Z AUTO 27020G33KT 9999 NCD 06/01 Q0996 W (270°) 23.0mph 38.0mph 6°C 1°C
24/02/20 18:50 EGXU 241850Z AUTO 27018G30KT 9999 FEW029/// 06/02 Q0996 W (270°) 20.7mph 34.5mph 6°C 2°C
24/02/20 17:50 EGXU 241750Z AUTO 26023G35KT 9999 FEW018/// 07/03 Q0995 W (260°) 26.5mph 40.3mph 7°C 3°C
24/02/20 16:50 EGXU 241650Z AUTO 26022G32KT 9999 BKN018/// 08/04 Q0995 W (260°) 25.3mph 36.8mph 8°C 4°C
24/02/20 15:50 EGXU 241550Z AUTO 26021G36KT 9999 SCT020/// 10/07 Q0994 W (260°) 24.2mph 41.4mph 10°C 7°C
24/02/20 14:50 EGXU 241450Z AUTO 25027G39KT 9999 NCD 11/08 Q0993 WSW (250°) 31.1mph 44.9mph 11°C 8°C
24/02/20 13:50 EGXU 241350Z AUTO 26012G23KT 9999 BKN012/// SCT020/// BKN031/// 11/09 Q0994 W (260°) 13.8mph 26.5mph 11°C 9°C
24/02/20 12:50 EGXU 241250Z AUTO 19002KT 9999 BKN013/// SCT021/// 07/07 Q0995 S (190°) 2.3mph 7°C 7°C
24/02/20 11:50 EGXU 241150Z AUTO 09002KT 0900 FG OVC001/// 04/04 Q0996 FG E (90°) 2.3mph 4°C 4°C
24/02/20 10:50 EGXU 241050Z AUTO 16005KT 4200 BR OVC002/// 04/04 Q0997 RERA BR SSE (160°) 5.8mph 4°C 4°C
24/02/20 09:50 EGXU 240950Z AUTO 11008KT 6000 -RA OVC003/// 02/02 Q0999 -RA ESE (110°) 9.2mph 2°C 2°C
24/02/20 08:50 EGXU 240850Z AUTO 11012KT 5000 FZUP OVC003/// 01/01 Q1002 UP ESE (110°) 13.8mph 1°C 1°C
24/02/20 07:50 EGXU 240750Z AUTO 11012KT 1400 -SN OVC002/// 00/00 Q1005 -SN ESE (110°) 13.8mph 0°C 0°C
24/02/20 06:50 EGXU 240650Z AUTO 10011KT 0750 SN OVC002/// 00/00 Q1008 SN E (100°) 12.7mph 0°C 0°C
24/02/20 05:50 EGXU 240550Z AUTO 10008KT 1100 SN BKN002/// 01/00 Q1011 SN E (100°) 9.2mph 1°C 0°C
24/02/20 04:50 EGXU 240450Z AUTO 15010KT 4700 RA BKN006/// 02/01 Q1013 RA SSE (150°) 11.5mph 2°C 1°C
24/02/20 03:50 EGXU 240350Z AUTO 17012KT 8000 RA BKN016/// SCT050/// 04/01 Q1015 RA S (170°) 13.8mph 4°C 1°C
24/02/20 02:50 EGXU 240250Z AUTO 16007KT 9999 OVC060/// 04/02 Q1016 SSE (160°) 8.1mph 4°C 2°C
24/02/20 01:50 EGXU 240150Z AUTO 15006KT 9999 OVC110/// 04/01 Q1018 SSE (150°) 6.9mph 4°C 1°C
24/02/20 00:50 EGXU 240050Z AUTO 17002KT 9999 OVC130/// 04/00 Q1019 S (170°) 2.3mph 4°C 0°C
23/02/20 23:50 EGXU 232350Z AUTO 22006KT 9999 OVC140/// 05/00 Q1020 SW (220°) 6.9mph 5°C 0°C
23/02/20 22:50 EGXU 232250Z AUTO 22003KT 9999 BKN150/// 04/00 Q1020 SW (220°) 3.5mph 4°C 0°C
23/02/20 21:50 EGXU 232150Z AUTO 20003KT 9999 SCT150/// 04/M00 Q1020 SSW (200°) 3.5mph 4°C 0°C
23/02/20 20:50 EGXU 232050Z AUTO 28007KT 9999 FEW210/// 04/M00 Q1019 W (280°) 8.1mph 4°C 0°C
23/02/20 19:50 EGXU 231950Z AUTO 29010KT 9999 NCD 04/M00 Q1019 WNW (290°) 11.5mph 4°C 0°C
23/02/20 18:50 EGXU 231850Z AUTO 26006KT 9999 NCD 05/00 Q1019 W (260°) 6.9mph 5°C 0°C